ADDS METAR Data INFO
IDs: Format: Raw Decoded Include TAF

Data at: 0509 UTC 23 May 2017

KAXH 230455Z AUTO 01006KT 10SM OVC012 20/18 A2989 RMK AO2 T02020178
KAXH 230435Z AUTO 00000KT 10SM OVC012 20/18 A2988 RMK AO2 T02040180
KAXH 230415Z AUTO 01004KT 10SM OVC012 20/18 A2989 RMK AO2 T02030180
KAXH 230355Z AUTO 36007KT 10SM OVC012 21/18 A2988 RMK AO2 T02060181
KAXH 230335Z AUTO 36007KT 10SM OVC012 21/18 A2988 RMK AO2 T02080182
KAXH 230315Z AUTO 01007KT 10SM OVC012 21/19 A2987 RMK AO2 T02110186
KAXH 230255Z AUTO 01007KT 10SM OVC012 21/19 A2987 RMK AO2 T02130190
KAXH 230235Z AUTO 36006KT 10SM BKN012 21/19 A2986 RMK AO2 T02130191
KAXH 230215Z AUTO 36005KT 10SM SCT012 22/19 A2986 RMK AO2 T02150192
KAXH 230155Z AUTO 36004KT 10SM SCT012 22/19 A2986 RMK AO2 T02160193
KAXH 230135Z AUTO 36006KT 10SM SCT012 22/20 A2986 RMK AO2 T02180195
KAXH 230115Z AUTO 36005KT 10SM SCT038 22/20 A2985 RMK AO2 T02220196
KAXH 230055Z AUTO 35008KT 10SM BKN038 23/20 A2984 RMK AO2 T02280198
KAXH 230035Z AUTO 36005KT 10SM SCT026 OVC036 24/20 A2985 RMK AO2 T02350200
KAXH 230015Z AUTO 36006KT 10SM BKN026 OVC034 24/20 A2985 RMK AO2 T02380201
KAXH 222355Z AUTO 01006KT 10SM SCT017 BKN028 24/20 A2986 RMK AO2 LTG DSNT N 60001 T02400202 10269 20226
KAXH 222335Z AUTO 03006KT 10SM SCT017 25/20 A2986 RMK AO2 T02470203
KAXH 222315Z AUTO 03005KT 10SM SCT050 25/21 A2986 RMK AO2 T02510206
KAXH 222255Z AUTO 02005KT 10SM SCT017 SCT030 BKN050 25/21 A2987 RMK AO2 T02460205
KAXH 222235Z AUTO 02006KT 7SM BKN017 BKN030 BKN046 25/21 A2987 RMK AO2 T02500206
KAXH 222215Z AUTO 02007KT 10SM SCT017 BKN030 OVC045 25/21 A2988 RMK AO2 LTG DSNT SE T02480206
KAXH 222155Z AUTO 01008KT 10SM SCT015 BKN030 OVC050 25/21 A2988 RMK AO2 T02450207
KAXH 222135Z AUTO 01005KT 10SM SCT013 BKN029 OVC050 25/21 A2988 RMK AO2 T02470210
KAXH 222115Z AUTO 35005KT 10SM SCT009 BKN032 OVC090 25/21 A2989 RMK AO2 T02510211
KAXH 222055Z AUTO 02006KT 10SM SCT007 BKN034 OVC090 24/21 A2989 RMK AO2 60001 T02400210
KAXH 222035Z AUTO 02006KT 10SM SCT026 BKN034 OVC050 24/21 A2990 RMK AO2 T02350210
KAXH 222015Z AUTO 01008KT 10SM -RA SCT025 BKN033 OVC050 23/21 A2991 RMK AO2 T02330211
KAXH 221955Z AUTO 30008KT 10SM SCT020 BKN047 OVC060 26/21 A2991 RMK AO2 P0001 T02620210
KAXH 221935Z AUTO 22003KT 10SM SCT021 BKN035 OVC060 27/23 A2991 RMK AO2 P0001 T02680225
KAXH 221915Z AUTO 00000KT 10SM -RA SCT015 BKN022 OVC042 26/23 A2992 RMK AO2 P0001 T02550226
KAXH 221855Z AUTO 17005KT 10SM BKN015 OVC020 25/22 A2993 RMK AO2 T02510220
KAXH 221835Z AUTO 17005KT 10SM OVC015 25/22 A2994 RMK AO2 T02500220
KAXH 221815Z AUTO 18006KT 10SM OVC015 26/22 A2994 RMK AO2 T02590221
KAXH 221755Z AUTO 18007KT 10SM OVC015 26/22 A2995 RMK AO2 60050 T02570222 10257 20211
KAXH 221735Z AUTO 17007KT 10SM SCT015 BKN022 25/22 A2996 RMK AO2 LTG DSNT S T02540221
KAXH 221715Z AUTO 15011G15KT 10SM SCT009 25/22 A2996 RMK AO2 T02450219
KAXH 221655Z AUTO 15008G15KT 10SM CLR 24/22 A2996 RMK AO2 T02350219
KAXH 221635Z AUTO 15009G16KT 10SM SCT009 SCT033 BKN110 23/21 A2996 RMK AO2 T02250214
KAXH 221615Z AUTO 16009G19KT 10SM -RA SCT009 BKN060 OVC090 22/21 A2997 RMK AO2 T02200209
KAXH 221555Z AUTO 14011G17KT 7SM -RA SCT075 OVC080 21/20 A2994 RMK AO2 P0010 T02110200
KAXH 221535Z AUTO 15014G24KT 5SM -RA SCT005 OVC075 21/20 A2994 RMK AO2 P0007 T02130202
KAXH 221515Z AUTO 15016G23KT 4SM RA BKN005 BKN014 OVC026 23/22 A2996 RMK AO2 P0003 T02250215
KAXH 221455Z AUTO 14009KT 5SM RA BKN005 BKN013 OVC080 23/22 A2996 RMK AO2 LTG DSNT SE P0012 60040 T02250216
KAXH 221435Z AUTO 17007KT 3SM -RA SCT005 BKN012 OVC031 23/22 A2997 RMK AO2 P0009 T02250216
KAXH 221415Z AUTO 15006KT 4SM RA SCT005 BKN011 OVC016 22/21 A2998 RMK AO2 P0003 T02230213
KAXH 221355Z AUTO 13004KT 5SM -RA BKN014 BKN034 OVC070 22/21 A2998 RMK AO2 LTG DSNT S P0018 T02220212
KAXH 221335Z AUTO 15006KT 4SM RA SCT009 BKN055 OVC070 22/21 A2998 RMK AO2 P0015 T02200210
KAXH 221315Z AUTO 13004KT 1 1/2SM +RA BKN009 OVC019 22/21 A2999 RMK AO2 LTG DSNT S P0009 T02200210
KAXH 221255Z AUTO 14004KT 5SM RA BKN009 OVC024 22/21 A2999 RMK AO2 LTG DSNT SE P0010 T02200208
KAXH 221235Z AUTO 14006KT 5SM -RA BKN009 OVC033 22/21 A2998 RMK AO2 LTG DSNT SE AND S P0006 T02200208
KAXH 221215Z AUTO 12006KT 5SM RA BKN009 BKN014 OVC039 22/21 A2997 RMK AO2 LTG DSNT S P0003 T02200208
KAXH 221155Z AUTO 13009G14KT 7SM -RA OVC007 22/21 A2997 RMK AO2 P0011 60011 70041 T02200209 10233 20220
KAXH 221135Z AUTO 13011G17KT 5SM RA BKN007 OVC011 22/21 A2997 RMK AO2 LTG DSNT ALQS P0006 T02210210
KAXH 221115Z AUTO 14008G14KT 7SM VCTSRA BKN011 BKN031 OVC048 22/21 A2996 RMK AO2 LTG DSNT ALQS P0001 T02230210
KAXH 221055Z AUTO 13012G21KT 7SM -TSRA BKN013 BKN027 OVC055 22/21 A2994 RMK AO2 LTG DSNT ALQS T02240209
KAXH 221035Z AUTO 11008G14KT 10SM OVC013 23/21 A2995 RMK AO2 LTG DSNT S AND SW T02330211
KAXH 221015Z AUTO 12008KT 10SM OVC015 23/21 A2996 RMK AO2 LTG DSNT SW AND W T02300210
KAXH 220955Z AUTO 11004KT 10SM OVC015 23/21 A2997 RMK AO2 LTG DSNT S AND SW T02280206
KAXH 220935Z AUTO 10005KT 10SM BKN015 BKN031 OVC046 23/21 A2996 RMK AO2 LTG DSNT SE THRU W T02270205
KAXH 220915Z AUTO 12005KT 10SM VCTS SCT015 BKN031 OVC046 23/21 A2998 RMK AO2 LTG DSNT SE THRU SW T02260205
KAXH 220855Z AUTO 12009KT 10SM SCT010 BKN013 OVC021 23/21 A2997 RMK AO2 LTG DSNT SE THRU W T02270205
KAXH 220835Z AUTO 11010KT 10SM BKN011 OVC019 23/21 A2997 RMK AO2 LTG DSNT S AND SW T02300210
KAXH 220815Z AUTO 08009G14KT 10SM OVC013 23/21 A2998 RMK AO2 LTG DSNT S AND SW T02280209
KAXH 220755Z AUTO 07008KT 10SM BKN013 OVC022 23/21 A2999 RMK AO2 T02280206
KAXH 220735Z AUTO 09007KT 10SM BKN015 OVC024 23/20 A3000 RMK AO2 LTG DSNT S T02280203
KAXH 220715Z AUTO 08006KT 10SM SCT015 OVC032 23/20 A3001 RMK AO2 LTG DSNT S T02270202
KAXH 220655Z AUTO 08006KT 10SM SCT025 BKN029 OVC035 23/20 A3002 RMK AO2 T02270201
KAXH 220635Z AUTO 09005KT 10SM SCT017 BKN024 OVC042 23/20 A3001 RMK AO2 T02270200
KAXH 220615Z AUTO 09008KT 10SM SCT018 BKN042 OVC048 23/20 A3001 RMK AO2 T02280200
KAXH 220555Z AUTO 06006KT 10SM OVC024 23/21 A3002 RMK AO2 LTG DSNT E AND SE 60009 T02300207 10233 20220
KAXH 220535Z AUTO 06004KT 10SM BKN014 OVC022 23/21 A3003 RMK AO2 LTG DSNT SE T02250209
KAXH 220515Z AUTO 03005KT 10SM OVC012 22/21 A3003 RMK AO2 T02230207
KAXH 220455Z AUTO 00000KT 10SM OVC012 22/21 A3005 RMK AO2 T02200205
KAXH 220435Z AUTO 03005KT 10SM OVC014 22/21 A3004 RMK AO2 T02200205
KAXH 220415Z AUTO 02005KT 10SM OVC014 22/21 A3004 RMK AO2 LTG DSNT E THRU S T02240206
KAXH 220355Z AUTO 04004KT 10SM SCT014 OVC021 23/21 A3004 RMK AO2 LTG DSNT E AND S T02260207
KAXH 220335Z AUTO 04004KT 10SM SCT021 23/21 A3004 RMK AO2 LTG DSNT SE AND S T02250206
KAXH 220315Z AUTO 07007KT 10SM CLR 23/21 A3001 RMK AO2 LTG DSNT SE AND S T02250207
KAXH 220255Z AUTO 07006KT 10SM SCT060 SCT070 SCT090 22/21 A3000 RMK AO2 LTG DSNT SE 60009 T02230211
KAXH 220235Z AUTO 06007KT 10SM SCT060 SCT070 BKN090 22/21 A2999 RMK AO2 LTG DSNT SE T02210210
KAXH 220215Z AUTO 00000KT 10SM BKN090 22/21 A3002 RMK AO2 LTG DSNT N AND SW T02210208
KAXH 220155Z AUTO 09004KT 10SM VCTS SCT036 22/21 A3002 RMK AO2 LTG DSNT NE P0001 T02200207
KAXH 220135Z AUTO 03003KT 10SM -RA SCT031 SCT049 SCT075 22/21 A3003 RMK AO2 LTG DSNT N P0001 T02200206
KAXH 220115Z AUTO 01003KT 10SM VCTS SCT025 BKN030 BKN035 22/21 A3003 RMK AO2 LTG DSNT N AND NW T02200205
KAXH 220055Z AUTO 02003KT 10SM TS OVC023 22/21 A3002 RMK AO2 LTG DSNT ALQS P0008 T02200205
KAXH 220035Z AUTO 03005KT 5SM -VCTSRA BKN023 OVC030 22/21 A3001 RMK AO2 LTG DSNT ALQS P0008 T02200205
KAXH 220015Z AUTO 04005KT 10SM -VCTSRA SCT006 SCT011 OVC020 22/20 A2999 RMK AO2 LTG DSNT NE SE AND W P0001 T02200204
KAXH 212355Z AUTO 07010G18KT 1 1/4SM +RA SCT009 OVC020 24/22 A2998 RMK AO2 LTG DSNT SE P0020 60020 T02350220 10309 20235
KAXH 212335Z AUTO 03008KT 10SM BKN020 OVC032 26/22 A2997 RMK AO2 LTG DSNT SE T02600222
KAXH 212315Z AUTO 03008KT 10SM BKN024 BKN030 26/23 A2998 RMK AO2 LTG DSNT W T02630225
KAXH 212255Z AUTO 03009KT 10SM CLR 27/23 A2995 RMK AO2 T02680226
KAXH 212235Z AUTO 08005KT 10SM CLR 28/24 A2996 RMK AO2 LTG DSNT E T02810235
KAXH 212215Z AUTO 00000KT 10SM SCT035 SCT042 SCT050 28/24 A2997 RMK AO2 LTG DSNT E T02760236
KAXH 212155Z AUTO 00000KT 10SM -RA SCT035 BKN050 OVC060 27/24 A2998 RMK AO2 LTG DSNT E T02720235
KAXH 212135Z AUTO 06003KT 10SM -RA SCT033 BKN045 OVC085 27/24 A2998 RMK AO2 LTG DSNT E SE AND W T02710237
KAXH 212115Z AUTO 00000KT 10SM TS 27/23 A3000 RMK AO2 LTG DSNT E T02740234
KAXH 212055Z AUTO 00000KT 10SM VCTS 27/23 A2999 RMK AO2 LTG DSNT E W AND NW T02730231
KAXH 212035Z AUTO 00000KT 10SM CLR 27/23 A2998 RMK AO2 LTG DSNT ALQS T02710232
KAXH 212015Z AUTO 00000KT 10SM CLR 28/23 A2997 RMK AO2 LTG DSNT E W AND NW T02760229
KAXH 211955Z AUTO 13006KT 10SM SCT027 SCT037 SCT110 28/22 A2996 RMK AO2 LTG DSNT NE E AND W T02810224
KAXH 211935Z AUTO 13010G16KT 10SM SCT028 BKN040 BKN049 28/22 A2998 RMK AO2 LTG DSNT N AND W T02840222
KAXH 211915Z AUTO 15012G17KT 10SM SCT028 30/23 A2998 RMK AO2 LTG DSNT ALQS T03040228
KAXH 211855Z AUTO 12011G16KT 10SM CLR 31/22 A2998 RMK AO2 LTG DSNT NE AND W T03090222
KAXH 211835Z AUTO 14006KT 10SM CLR 30/22 A3000 RMK AO2 LTG DSNT W T03030216
KAXH 211815Z AUTO 10009KT 10SM SCT035 SCT044 30/22 A3001 RMK AO2 LTG DSNT E AND SE T03000219
KAXH 211755Z AUTO 15007KT 10SM SCT035 29/22 A3003 RMK AO2 LTG DSNT E AND S T02920223 10297 20233
KAXH 211735Z AUTO 16006KT 10SM VCTS SCT026 SCT033 SCT060 29/22 A3003 RMK AO2 LTG DSNT E AND S T02850221
KAXH 211715Z AUTO 16006KT 10SM SCT026 SCT040 BKN050 27/22 A3002 RMK AO2 LTG DSNT E AND S T02650215


Page loaded:  05:09 UTC  |   10:09 PM Pacific  |   11:09 PM Mountain  |   12:09 AM Central  |   01:09 AM Eastern

 

ADVISORIES

FORECASTS

FORECASTS

OBSERVATIONS

USER TOOLS

ABOUT US